createdAt,value
2018-08-25T00:01:02.031Z,12.50
2018-08-25T00:03:30.649Z,12.50
2018-08-25T00:05:59.353Z,12.50
2018-08-25T00:08:28.175Z,12.50
2018-08-25T00:10:56.871Z,12.50
2018-08-25T00:13:25.707Z,12.60
2018-08-25T00:15:54.311Z,12.60
2018-08-25T00:18:22.991Z,12.50
2018-08-25T00:20:51.644Z,12.50
2018-08-25T00:23:20.303Z,12.60
2018-08-25T00:25:49.068Z,12.60
2018-08-25T00:28:17.755Z,12.60
2018-08-25T00:30:51.719Z,12.60
2018-08-25T00:33:20.502Z,12.60
2018-08-25T00:35:49.138Z,12.50
2018-08-25T00:38:17.789Z,12.60
2018-08-25T00:40:46.497Z,12.60
2018-08-25T00:43:15.133Z,12.60
2018-08-25T00:45:43.943Z,12.50
2018-08-25T00:48:12.623Z,12.50
2018-08-25T00:50:41.320Z,12.50
2018-08-25T00:53:09.955Z,12.50
2018-08-25T00:55:38.581Z,12.50
2018-08-25T00:58:07.700Z,12.50
2018-08-25T01:00:36.812Z,12.40
2018-08-25T01:03:05.728Z,12.40
2018-08-25T01:05:34.379Z,12.30
2018-08-25T01:08:03.343Z,12.30
2018-08-25T01:10:32.013Z,12.40
2018-08-25T01:13:01.037Z,12.40
2018-08-25T01:15:29.675Z,12.30
2018-08-25T01:17:58.496Z,12.30
2018-08-25T01:20:27.146Z,12.20
2018-08-25T01:22:55.811Z,12.20
2018-08-25T01:25:24.445Z,12.20
2018-08-25T01:27:53.181Z,12.20
2018-08-25T01:30:21.823Z,12.20
2018-08-25T01:32:50.456Z,12.20
2018-08-25T01:35:19.544Z,12.20
2018-08-25T01:37:48.211Z,12.20
2018-08-25T01:40:16.954Z,12.20
2018-08-25T01:42:45.577Z,12.20
2018-08-25T01:45:14.227Z,12.20
2018-08-25T01:47:42.872Z,12.10
2018-08-25T01:50:11.504Z,12.20
2018-08-25T01:52:40.148Z,12.10
2018-08-25T01:55:09.031Z,12.10
2018-08-25T01:57:37.644Z,12.20
2018-08-25T02:00:10.315Z,12.10
2018-08-25T02:02:39.359Z,12.10
2018-08-25T02:05:08.053Z,12.00
2018-08-25T02:07:36.679Z,12.10
2018-08-25T02:10:06.077Z,12.10
2018-08-25T02:12:34.699Z,12.00
2018-08-25T02:15:03.341Z,12.00
2018-08-25T02:17:32.061Z,12.00
2018-08-25T02:20:00.727Z,12.00
2018-08-25T02:22:29.370Z,12.00
2018-08-25T02:24:58.027Z,11.90
2018-08-25T02:27:26.740Z,11.90
2018-08-25T02:29:55.438Z,11.90
2018-08-25T02:32:24.059Z,11.90
2018-08-25T02:34:52.660Z,11.90
2018-08-25T02:37:21.272Z,11.90
2018-08-25T02:39:49.932Z,11.90
2018-08-25T02:42:18.599Z,11.90
2018-08-25T02:44:47.268Z,11.90
2018-08-25T02:47:15.884Z,11.90
2018-08-25T02:49:44.679Z,11.80
2018-08-25T02:52:13.441Z,11.70
2018-08-25T02:54:42.081Z,11.80
2018-08-25T02:57:10.887Z,11.70
2018-08-25T02:59:39.523Z,11.80
2018-08-25T03:02:08.434Z,11.80
2018-08-25T03:04:37.051Z,11.80
2018-08-25T03:07:05.701Z,11.80
2018-08-25T03:09:34.659Z,11.80
2018-08-25T03:12:03.375Z,11.70
2018-08-25T03:14:32.069Z,11.70
2018-08-25T03:17:01.148Z,11.70
2018-08-25T03:19:29.794Z,11.70
2018-08-25T03:21:58.503Z,11.80
2018-08-25T03:24:27.209Z,11.80
2018-08-25T03:26:56.250Z,11.70
2018-08-25T03:29:25.005Z,11.80
2018-08-25T03:31:53.835Z,11.80
2018-08-25T03:34:22.581Z,11.80
2018-08-25T03:36:51.234Z,11.80
2018-08-25T03:39:19.842Z,11.80
2018-08-25T03:41:48.481Z,11.80
2018-08-25T03:44:17.151Z,11.80
2018-08-25T03:46:45.814Z,11.90
2018-08-25T03:49:14.561Z,11.90
2018-08-25T03:51:43.221Z,11.90
2018-08-25T03:54:12.131Z,11.90
2018-08-25T03:56:40.737Z,11.90
2018-08-25T03:59:09.414Z,11.90
2018-08-25T04:01:38.045Z,11.90
2018-08-25T04:04:06.763Z,11.80
2018-08-25T04:06:35.571Z,11.90
2018-08-25T04:09:06.409Z,11.80
2018-08-25T04:11:35.231Z,11.80
2018-08-25T04:14:03.891Z,11.80
2018-08-25T04:16:32.535Z,11.90
2018-08-25T04:19:01.160Z,11.90
2018-08-25T04:21:29.907Z,11.90
2018-08-25T04:23:58.816Z,11.90
2018-08-25T04:26:27.451Z,11.90
2018-08-25T04:28:56.082Z,11.90
2018-08-25T04:31:24.810Z,11.90
2018-08-25T04:33:53.411Z,11.80
2018-08-25T04:36:22.221Z,11.80
2018-08-25T04:38:50.849Z,11.80
2018-08-25T04:41:19.547Z,11.90
2018-08-25T04:43:48.250Z,11.90
2018-08-25T04:46:16.909Z,11.90
2018-08-25T04:48:45.619Z,11.90
2018-08-25T04:51:14.734Z,11.90
2018-08-25T04:53:43.631Z,11.90
2018-08-25T04:56:12.275Z,11.90
2018-08-25T04:58:40.920Z,11.90
2018-08-25T05:01:09.710Z,11.90
2018-08-25T05:03:39.026Z,11.90
2018-08-25T05:06:07.642Z,11.90
2018-08-25T05:08:36.236Z,12.00
2018-08-25T05:11:04.946Z,12.00
2018-08-25T05:13:33.779Z,11.90
2018-08-25T05:16:02.651Z,11.90
2018-08-25T05:18:31.335Z,11.80
2018-08-25T05:21:00.111Z,11.70
2018-08-25T05:23:29.109Z,11.70
2018-08-25T05:25:57.756Z,11.60
2018-08-25T05:28:26.437Z,11.70
2018-08-25T05:30:55.242Z,11.60
2018-08-25T05:33:23.843Z,11.50
2018-08-25T05:35:52.484Z,11.50
2018-08-25T05:38:21.439Z,11.50
2018-08-25T05:40:50.049Z,11.50
2018-08-25T05:43:18.722Z,11.40
2018-08-25T05:45:47.361Z,11.40
2018-08-25T05:48:16.041Z,11.50
2018-08-25T05:50:44.657Z,11.40
2018-08-25T05:53:13.290Z,11.40
2018-08-25T05:55:42.272Z,11.40
2018-08-25T05:58:10.930Z,11.40
2018-08-25T06:00:39.601Z,11.40
2018-08-25T06:03:08.223Z,11.40
2018-08-25T06:05:36.913Z,11.50
2018-08-25T06:08:05.786Z,11.50
2018-08-25T06:10:34.952Z,11.50
2018-08-25T06:13:03.633Z,11.50
2018-08-25T06:15:32.912Z,11.50
2018-08-25T06:18:01.623Z,11.60
2018-08-25T06:20:30.269Z,11.60
2018-08-25T06:22:59.202Z,11.60
2018-08-25T06:25:27.801Z,11.60
2018-08-25T06:27:56.447Z,11.60
2018-08-25T06:30:25.099Z,11.60
2018-08-25T06:32:53.724Z,11.60
2018-08-25T06:35:22.408Z,11.60
2018-08-25T06:37:51.023Z,11.70
2018-08-25T06:40:19.715Z,11.60
2018-08-25T06:42:48.391Z,11.60
2018-08-25T06:45:17.165Z,11.60
2018-08-25T06:47:45.800Z,11.70
2018-08-25T06:50:14.657Z,11.70
2018-08-25T06:52:43.379Z,11.70
2018-08-25T06:55:12.132Z,11.70
2018-08-25T06:57:40.708Z,11.70
2018-08-25T07:00:10.423Z,11.60
2018-08-25T07:02:39.071Z,11.60
2018-08-25T07:05:07.772Z,11.60
2018-08-25T07:07:36.937Z,11.60
2018-08-25T07:10:05.655Z,11.60
2018-08-25T07:12:34.342Z,11.60
2018-08-25T07:15:02.959Z,11.50
2018-08-25T07:17:31.628Z,11.50
2018-08-25T07:20:00.331Z,11.50
2018-08-25T07:22:29.001Z,11.50
2018-08-25T07:24:57.901Z,11.50
2018-08-25T07:27:26.560Z,11.50
2018-08-25T07:29:55.182Z,11.50
2018-08-25T07:32:23.798Z,11.60
2018-08-25T07:34:52.445Z,11.60
2018-08-25T07:37:21.116Z,11.60
2018-08-25T07:39:49.759Z,11.50
2018-08-25T07:42:18.450Z,11.50
2018-08-25T07:44:47.303Z,11.40
2018-08-25T07:47:15.974Z,11.50
2018-08-25T07:49:44.623Z,11.50
2018-08-25T07:52:13.328Z,11.50
2018-08-25T07:54:42.043Z,11.50
2018-08-25T07:57:10.856Z,11.50
2018-08-25T07:59:39.581Z,11.50
2018-08-25T08:02:08.443Z,11.50
2018-08-25T08:04:37.207Z,11.60
2018-08-25T08:07:05.938Z,11.60
2018-08-25T08:09:34.595Z,11.60
2018-08-25T08:12:03.317Z,11.70
2018-08-25T08:14:32.055Z,11.60
2018-08-25T08:17:00.807Z,11.60
2018-08-25T08:19:29.579Z,11.60
2018-08-25T08:21:58.248Z,11.70
2018-08-25T08:24:27.154Z,11.80
2018-08-25T08:26:55.802Z,11.80
2018-08-25T08:29:24.440Z,11.80
2018-08-25T08:31:53.478Z,11.90
2018-08-25T08:34:22.106Z,12.00
2018-08-25T08:36:50.730Z,12.10
2018-08-25T08:39:19.417Z,12.10
2018-08-25T08:41:48.094Z,12.10
2018-08-25T08:44:16.866Z,12.20
2018-08-25T08:46:45.538Z,12.30
2018-08-25T08:49:14.175Z,12.20
2018-08-25T08:51:42.857Z,12.20
2018-08-25T08:54:11.523Z,12.20
2018-08-25T08:56:40.194Z,12.30
2018-08-25T08:59:08.986Z,12.40
2018-08-25T09:01:37.694Z,12.30
2018-08-25T09:04:06.578Z,12.40
2018-08-25T09:06:35.300Z,12.50
2018-08-25T09:09:06.342Z,12.50
2018-08-25T09:11:35.149Z,12.40
2018-08-25T09:14:03.840Z,12.40
2018-08-25T09:16:32.482Z,12.40
2018-08-25T09:19:01.608Z,12.50
2018-08-25T09:21:30.318Z,12.60
2018-08-25T09:23:59.072Z,12.60
2018-08-25T09:26:27.702Z,12.50
2018-08-25T09:28:56.663Z,12.50
2018-08-25T09:31:25.484Z,12.50
2018-08-25T09:33:54.230Z,12.50
2018-08-25T09:36:22.988Z,12.50
2018-08-25T09:38:52.105Z,12.50
2018-08-25T09:41:20.910Z,12.50
2018-08-25T09:43:49.905Z,12.40
2018-08-25T09:46:18.630Z,12.40
2018-08-25T09:48:47.512Z,12.30
2018-08-25T09:51:16.459Z,12.30
2018-08-25T09:53:45.094Z,12.20
2018-08-25T09:56:14.103Z,12.30
2018-08-25T09:58:42.802Z,12.30
2018-08-25T10:01:16.822Z,12.30
2018-08-25T10:03:45.439Z,12.40
2018-08-25T10:06:14.083Z,12.40
2018-08-25T10:08:42.765Z,12.40
2018-08-25T10:11:11.691Z,12.40
2018-08-25T10:13:40.309Z,12.40
2018-08-25T10:16:09.047Z,12.40
2018-08-25T10:18:37.692Z,12.40
2018-08-25T10:21:06.526Z,12.40
2018-08-25T10:23:35.361Z,12.40
2018-08-25T10:26:04.106Z,12.40
2018-08-25T10:28:32.836Z,12.40
2018-08-25T10:31:02.099Z,12.40
2018-08-25T10:33:30.730Z,12.40
2018-08-25T10:35:59.580Z,12.50
2018-08-25T10:38:28.650Z,12.60
2018-08-25T10:40:57.344Z,12.70
2018-08-25T10:43:26.020Z,12.80
2018-08-25T10:45:54.670Z,12.80
2018-08-25T10:48:23.290Z,12.90
2018-08-25T10:50:52.006Z,13.00
2018-08-25T10:53:20.732Z,13.10
2018-08-25T10:55:49.422Z,13.10
2018-08-25T10:58:18.337Z,13.20
2018-08-25T11:00:47.221Z,13.30
2018-08-25T11:03:15.670Z,13.40
2018-08-25T11:05:44.306Z,13.40
2018-08-25T11:08:13.006Z,13.40
2018-08-25T11:10:41.890Z,13.50
2018-08-25T11:13:10.574Z,13.60
2018-08-25T11:15:39.250Z,13.70
2018-08-25T11:18:08.240Z,13.70
2018-08-25T11:20:37.056Z,13.80
2018-08-25T11:23:05.830Z,13.80
2018-08-25T11:25:34.464Z,13.70
2018-08-25T11:28:03.573Z,13.70
2018-08-25T11:30:32.993Z,13.60
2018-08-25T11:33:02.036Z,13.60
2018-08-25T11:35:30.818Z,13.60
2018-08-25T11:37:59.692Z,13.70
2018-08-25T11:40:28.408Z,13.70
2018-08-25T11:42:57.090Z,13.70
2018-08-25T11:45:25.822Z,13.70
2018-08-25T11:47:54.468Z,13.90
2018-08-25T11:50:23.395Z,14.00
2018-08-25T11:52:52.050Z,14.30
2018-08-25T11:55:20.730Z,14.30
2018-08-25T11:57:49.415Z,14.50
2018-08-25T12:00:18.511Z,14.80
2018-08-25T12:02:47.158Z,14.90
2018-08-25T12:05:15.848Z,14.90
2018-08-25T12:07:44.616Z,14.90
2018-08-25T12:10:13.300Z,14.90
2018-08-25T12:12:42.135Z,15.00
2018-08-25T12:15:10.794Z,15.10
2018-08-25T12:17:39.444Z,15.20
2018-08-25T12:20:08.172Z,15.30
2018-08-25T12:22:36.818Z,15.20
2018-08-25T12:25:06.154Z,15.20
2018-08-25T12:27:34.912Z,15.20
2018-08-25T12:30:04.087Z,15.00
2018-08-25T12:32:33.118Z,14.90
2018-08-25T12:35:02.052Z,14.80
2018-08-25T12:37:30.699Z,15.00
2018-08-25T12:39:59.920Z,15.00
2018-08-25T12:42:28.722Z,15.00
2018-08-25T12:44:57.940Z,14.90
2018-08-25T12:47:27.388Z,14.40
2018-08-25T12:49:57.580Z,13.40
2018-08-25T12:52:26.471Z,13.00
2018-08-25T12:54:55.260Z,12.80
2018-08-25T12:57:23.961Z,12.60
2018-08-25T12:59:52.678Z,12.30
2018-08-25T13:02:21.599Z,12.10
2018-08-25T13:04:50.395Z,12.00
2018-08-25T13:07:19.082Z,12.00
2018-08-25T13:09:47.778Z,12.00
2018-08-25T13:12:16.441Z,12.00
2018-08-25T13:14:45.212Z,12.10
2018-08-25T13:17:13.857Z,12.10
2018-08-25T13:19:42.513Z,12.20
2018-08-25T13:22:11.474Z,12.50
2018-08-25T13:24:40.108Z,12.80
2018-08-25T13:27:08.767Z,13.20
2018-08-25T13:29:37.529Z,13.40
2018-08-25T13:32:06.258Z,13.40
2018-08-25T13:34:34.893Z,13.40
2018-08-25T13:37:03.568Z,13.40
2018-08-25T13:39:32.283Z,13.40
2018-08-25T13:42:01.070Z,13.50
2018-08-25T13:44:29.844Z,13.40
2018-08-25T13:46:58.761Z,13.40
2018-08-25T13:49:27.606Z,13.40
2018-08-25T13:51:56.874Z,13.50
2018-08-25T13:54:25.581Z,13.50
2018-08-25T13:56:54.275Z,13.50
2018-08-25T13:59:23.004Z,13.50
2018-08-25T14:01:51.712Z,13.50
2018-08-25T14:04:20.418Z,13.50
2018-08-25T14:06:49.112Z,13.50
2018-08-25T14:09:17.822Z,13.60
2018-08-25T14:11:46.648Z,13.80
2018-08-25T14:14:15.702Z,14.40
2018-08-25T14:16:44.469Z,15.10
2018-08-25T14:19:13.256Z,15.50
2018-08-25T14:21:41.940Z,16.00
2018-08-25T14:24:10.651Z,16.30
2018-08-25T14:26:39.344Z,16.50
2018-08-25T14:29:08.040Z,16.70
2018-08-25T14:31:36.782Z,17.00
2018-08-25T14:34:05.612Z,17.20
2018-08-25T14:36:35.131Z,17.40
2018-08-25T14:39:05.141Z,17.30
2018-08-25T14:41:33.872Z,17.10
2018-08-25T14:44:02.840Z,16.70
2018-08-25T14:46:32.758Z,16.50
2018-08-25T14:49:01.721Z,16.20
2018-08-25T14:51:30.664Z,16.00
2018-08-25T14:53:59.568Z,15.90
2018-08-25T14:56:28.969Z,15.80
2018-08-25T14:58:58.206Z,16.10
2018-08-25T15:01:27.124Z,16.60
2018-08-25T15:03:56.112Z,17.00
2018-08-25T15:06:25.074Z,17.40
2018-08-25T15:08:53.754Z,17.60
2018-08-25T15:11:22.429Z,17.70
2018-08-25T15:13:51.578Z,18.00
2018-08-25T15:16:20.328Z,18.20
2018-08-25T15:18:49.166Z,18.30
2018-08-25T15:21:17.848Z,18.20
2018-08-25T15:23:46.594Z,18.30
2018-08-25T15:26:15.312Z,18.50
2018-08-25T15:28:44.182Z,18.50
2018-08-25T15:31:13.270Z,18.10
2018-08-25T15:33:41.942Z,17.50
2018-08-25T15:36:10.726Z,16.90
2018-08-25T15:38:39.456Z,16.10
2018-08-25T15:41:08.107Z,15.20
2018-08-25T15:43:36.842Z,14.60
2018-08-25T15:46:05.682Z,14.20
2018-08-25T15:48:34.404Z,14.10
2018-08-25T15:51:03.094Z,14.00
2018-08-25T15:53:31.956Z,14.00
2018-08-25T15:56:00.676Z,14.00
2018-08-25T15:58:29.757Z,13.90
2018-08-25T16:01:01.190Z,13.80
2018-08-25T16:03:30.054Z,13.80
2018-08-25T16:05:59.713Z,13.70
2018-08-25T16:08:28.403Z,13.80
2018-08-25T16:10:57.307Z,14.10
2018-08-25T16:13:26.061Z,14.30
2018-08-25T16:15:54.830Z,14.50
2018-08-25T16:18:23.495Z,14.70
2018-08-25T16:20:52.112Z,14.70
2018-08-25T16:23:20.777Z,14.70
2018-08-25T16:25:49.398Z,14.50
2018-08-25T16:28:18.178Z,14.40
2018-08-25T16:30:47.073Z,14.30
2018-08-25T16:33:15.726Z,14.20
2018-08-25T16:35:44.356Z,14.20
2018-08-25T16:38:13.040Z,14.00
2018-08-25T16:40:42.101Z,13.90
2018-08-25T16:43:11.081Z,13.90
2018-08-25T16:45:39.777Z,13.80
2018-08-25T16:48:08.591Z,13.70
2018-08-25T16:50:37.434Z,13.70
2018-08-25T16:53:06.194Z,13.60
2018-08-25T16:55:35.344Z,13.60
2018-08-25T16:58:04.210Z,13.60
2018-08-25T17:00:33.098Z,13.50
2018-08-25T17:03:01.821Z,13.50
2018-08-25T17:05:30.585Z,13.50
2018-08-25T17:07:59.512Z,13.50
2018-08-25T17:10:28.284Z,13.50
2018-08-25T17:12:57.611Z,13.40
2018-08-25T17:15:26.736Z,13.40
2018-08-25T17:17:55.605Z,13.30
2018-08-25T17:20:24.289Z,13.30
2018-08-25T17:22:53.229Z,13.20
2018-08-25T17:25:21.877Z,13.20
2018-08-25T17:27:50.841Z,13.20
2018-08-25T17:30:19.830Z,13.10
2018-08-25T17:32:48.491Z,13.00
2018-08-25T17:35:17.472Z,12.90
2018-08-25T17:37:46.460Z,12.90
2018-08-25T17:40:15.141Z,12.90
2018-08-25T17:42:43.800Z,12.90
2018-08-25T17:45:12.685Z,12.90
2018-08-25T17:47:41.342Z,12.80
2018-08-25T17:50:10.097Z,12.80
2018-08-25T17:52:38.750Z,12.70
2018-08-25T17:55:07.488Z,12.70
2018-08-25T17:57:36.295Z,12.70
2018-08-25T18:00:06.172Z,12.70
2018-08-25T18:02:34.784Z,12.60
2018-08-25T18:05:03.516Z,12.70
2018-08-25T18:07:32.221Z,12.60
2018-08-25T18:10:00.945Z,12.60
2018-08-25T18:12:29.656Z,12.50
2018-08-25T18:14:58.329Z,12.50
2018-08-25T18:17:27.034Z,12.50
2018-08-25T18:19:55.704Z,12.40
2018-08-25T18:22:24.388Z,12.50
2018-08-25T18:24:53.068Z,12.40
2018-08-25T18:27:21.730Z,12.40
2018-08-25T18:29:50.360Z,12.40
2018-08-25T18:32:18.994Z,12.30
2018-08-25T18:34:47.699Z,12.30
2018-08-25T18:37:16.442Z,12.30
2018-08-25T18:39:45.145Z,12.30
2018-08-25T18:42:13.883Z,12.20
2018-08-25T18:44:42.581Z,12.20
2018-08-25T18:47:11.238Z,12.20
2018-08-25T18:49:39.899Z,12.20
2018-08-25T18:52:08.585Z,12.20
2018-08-25T18:54:37.394Z,12.20
2018-08-25T18:57:06.089Z,12.20
2018-08-25T18:59:34.818Z,12.20
2018-08-25T19:02:03.678Z,12.10
2018-08-25T19:04:32.333Z,12.20
2018-08-25T19:07:01.037Z,12.20
2018-08-25T19:09:29.682Z,12.00
2018-08-25T19:11:58.466Z,12.00
2018-08-25T19:14:27.127Z,12.00
2018-08-25T19:16:55.810Z,12.00
2018-08-25T19:19:24.466Z,12.00
2018-08-25T19:21:53.115Z,12.00
2018-08-25T19:24:21.797Z,12.00
2018-08-25T19:26:50.604Z,12.00
2018-08-25T19:29:19.418Z,12.00
2018-08-25T19:31:48.086Z,12.00
2018-08-25T19:34:16.760Z,12.00
2018-08-25T19:36:45.464Z,12.00
2018-08-25T19:39:14.386Z,12.00
2018-08-25T19:41:43.167Z,12.00
2018-08-25T19:44:11.824Z,12.00
2018-08-25T19:46:40.499Z,11.90
2018-08-25T19:49:09.155Z,11.90
2018-08-25T19:51:37.849Z,11.90
2018-08-25T19:54:06.613Z,11.90
2018-08-25T19:56:35.237Z,11.90
2018-08-25T19:59:04.279Z,11.90
2018-08-25T20:01:32.941Z,11.80
2018-08-25T20:04:01.628Z,11.80
2018-08-25T20:06:30.281Z,11.80
2018-08-25T20:08:59.039Z,11.70
2018-08-25T20:11:27.685Z,11.70
2018-08-25T20:13:56.366Z,11.60
2018-08-25T20:16:25.025Z,11.60
2018-08-25T20:18:53.798Z,11.60
2018-08-25T20:21:22.431Z,11.60
2018-08-25T20:23:51.184Z,11.60
2018-08-25T20:26:19.905Z,11.60
2018-08-25T20:28:48.573Z,11.60
2018-08-25T20:31:17.238Z,11.60
2018-08-25T20:33:45.873Z,11.60
2018-08-25T20:36:14.529Z,11.60
2018-08-25T20:38:43.189Z,11.50
2018-08-25T20:41:11.863Z,11.40
2018-08-25T20:43:40.545Z,11.40
2018-08-25T20:46:09.225Z,11.40
2018-08-25T20:48:37.911Z,11.40
2018-08-25T20:51:06.617Z,11.40
2018-08-25T20:53:35.294Z,11.40
2018-08-25T20:56:03.961Z,11.30
2018-08-25T20:58:32.606Z,11.40
2018-08-25T21:01:01.306Z,11.40
2018-08-25T21:03:29.950Z,11.30
2018-08-25T21:05:58.593Z,11.30
2018-08-25T21:08:27.289Z,11.30
2018-08-25T21:10:55.927Z,11.30
2018-08-25T21:13:24.690Z,11.30
2018-08-25T21:15:53.406Z,11.30
2018-08-25T21:18:22.022Z,11.20
2018-08-25T21:20:50.713Z,11.20
2018-08-25T21:23:19.440Z,11.20
2018-08-25T21:25:48.070Z,11.20
2018-08-25T21:28:16.878Z,11.20
2018-08-25T21:30:45.561Z,11.20
2018-08-25T21:33:14.256Z,11.20
2018-08-25T21:35:42.961Z,11.10
2018-08-25T21:38:11.641Z,11.10
2018-08-25T21:40:40.290Z,11.10
2018-08-25T21:43:09.014Z,11.10
2018-08-25T21:45:37.835Z,11.10
2018-08-25T21:48:06.502Z,11.10
2018-08-25T21:50:35.175Z,11.00
2018-08-25T21:53:03.881Z,11.00
2018-08-25T21:55:32.523Z,11.00
2018-08-25T21:58:01.299Z,10.90
2018-08-25T22:00:30.017Z,10.90
2018-08-25T22:02:58.723Z,10.90
2018-08-25T22:05:27.424Z,11.00
2018-08-25T22:07:56.171Z,11.00
2018-08-25T22:10:24.825Z,11.00
2018-08-25T22:12:53.554Z,11.00
2018-08-25T22:15:22.219Z,11.10
2018-08-25T22:17:50.886Z,11.00
2018-08-25T22:20:19.561Z,11.10
2018-08-25T22:22:48.271Z,11.00
2018-08-25T22:25:16.929Z,11.10
2018-08-25T22:27:45.659Z,11.00
2018-08-25T22:30:14.451Z,11.10
2018-08-25T22:32:43.095Z,11.10
2018-08-25T22:35:11.805Z,11.00
2018-08-25T22:37:40.436Z,11.00
2018-08-25T22:40:09.135Z,11.00
2018-08-25T22:42:37.796Z,11.00
2018-08-25T22:45:06.529Z,11.00
2018-08-25T22:47:35.169Z,10.90
2018-08-25T22:50:03.917Z,10.80
2018-08-25T22:52:37.953Z,10.70
2018-08-25T22:55:06.758Z,10.70
2018-08-25T22:57:35.417Z,10.70
2018-08-25T23:00:04.344Z,10.70
2018-08-25T23:02:33.367Z,10.60
2018-08-25T23:05:04.695Z,10.60
2018-08-25T23:07:33.639Z,10.60
2018-08-25T23:10:02.311Z,10.60
2018-08-25T23:12:31.382Z,10.50
2018-08-25T23:15:00.088Z,10.50
2018-08-25T23:17:28.838Z,10.50
2018-08-25T23:19:57.925Z,10.50
2018-08-25T23:22:27.087Z,10.50
2018-08-25T23:24:55.763Z,10.50
2018-08-25T23:27:24.516Z,10.40
2018-08-25T23:29:53.365Z,10.50
2018-08-25T23:32:22.026Z,10.40
2018-08-25T23:34:50.737Z,10.40
2018-08-25T23:37:19.427Z,10.40
2018-08-25T23:39:48.070Z,10.40
2018-08-25T23:42:16.813Z,10.40
2018-08-25T23:44:45.482Z,10.30
2018-08-25T23:47:14.299Z,10.30
2018-08-25T23:49:43.091Z,10.30
2018-08-25T23:52:11.721Z,10.30
2018-08-25T23:54:40.459Z,10.30
2018-08-25T23:57:09.107Z,10.30
2018-08-25T23:59:37.755Z,10.20
